sensor_id;sensor_type;location;lat;lon;timestamp;temperature;humidity
935;DHT22;454;53.254;10.400;2022-12-24T05:02:22;5.50;99.90
935;DHT22;454;53.254;10.400;2022-12-24T05:04:49;5.50;99.90
935;DHT22;454;53.254;10.400;2022-12-24T05:07:16;5.50;99.90
935;DHT22;454;53.254;10.400;2022-12-24T05:09:43;5.40;99.90
935;DHT22;454;53.254;10.400;2022-12-24T05:12:09;5.50;99.90
935;DHT22;454;53.254;10.400;2022-12-24T05:14:36;5.50;99.90
935;DHT22;454;53.254;10.400;2022-12-24T05:17:03;5.50;99.90
935;DHT22;454;53.254;10.400;2022-12-24T05:19:31;5.40;99.90
935;DHT22;454;53.254;10.400;2022-12-24T05:21:58;5.40;99.90
935;DHT22;454;53.254;10.400;2022-12-24T05:24:42;5.40;99.90
935;DHT22;454;53.254;10.400;2022-12-24T05:27:26;5.40;99.90
935;DHT22;454;53.254;10.400;2022-12-24T05:29:54;5.40;99.90
935;DHT22;454;53.254;10.400;2022-12-24T05:32:20;5.40;99.90
935;DHT22;454;53.254;10.400;2022-12-24T05:34:48;5.40;99.90
935;DHT22;454;53.254;10.400;2022-12-24T05:37:15;5.40;99.90
935;DHT22;454;53.254;10.400;2022-12-24T05:39:42;5.40;99.90
935;DHT22;454;53.254;10.400;2022-12-24T05:42:09;5.40;99.90
935;DHT22;454;53.254;10.400;2022-12-24T05:44:35;5.40;99.90
935;DHT22;454;53.254;10.400;2022-12-24T05:47:02;5.40;99.90
935;DHT22;454;53.254;10.400;2022-12-24T05:49:29;5.40;99.90
935;DHT22;454;53.254;10.400;2022-12-24T05:51:57;5.40;99.90
935;DHT22;454;53.254;10.400;2022-12-24T05:54:24;5.40;99.90
935;DHT22;454;53.254;10.400;2022-12-24T05:56:51;5.40;99.90
935;DHT22;454;53.254;10.400;2022-12-24T05:59:17;5.40;99.90
935;DHT22;454;53.254;10.400;2022-12-24T06:01:44;5.40;99.90
935;DHT22;454;53.254;10.400;2022-12-24T06:04:12;5.40;99.90
935;DHT22;454;53.254;10.400;2022-12-24T06:06:39;5.40;99.90
935;DHT22;454;53.254;10.400;2022-12-24T06:09:07;5.40;99.90
935;DHT22;454;53.254;10.400;2022-12-24T06:11:34;5.40;99.90
935;DHT22;454;53.254;10.400;2022-12-24T06:14:01;5.40;99.90
935;DHT22;454;53.254;10.400;2022-12-24T06:16:28;5.40;99.90
935;DHT22;454;53.254;10.400;2022-12-24T06:18:54;5.40;99.90
935;DHT22;454;53.254;10.400;2022-12-24T06:21:21;5.40;99.90
935;DHT22;454;53.254;10.400;2022-12-24T06:23:48;5.40;99.90
935;DHT22;454;53.254;10.400;2022-12-24T06:26:17;5.40;99.90
935;DHT22;454;53.254;10.400;2022-12-24T06:28:45;5.40;99.90
935;DHT22;454;53.254;10.400;2022-12-24T06:31:16;5.40;99.90
935;DHT22;454;53.254;10.400;2022-12-24T06:33:43;5.40;99.90
935;DHT22;454;53.254;10.400;2022-12-24T06:36:13;5.40;99.90
935;DHT22;454;53.254;10.400;2022-12-24T06:38:40;5.40;99.90
935;DHT22;454;53.254;10.400;2022-12-24T06:41:07;5.40;99.90
935;DHT22;454;53.254;10.400;2022-12-24T06:43:36;5.40;99.90
935;DHT22;454;53.254;10.400;2022-12-24T06:46:03;5.40;99.90
935;DHT22;454;53.254;10.400;2022-12-24T06:48:30;5.40;99.90
935;DHT22;454;53.254;10.400;2022-12-24T06:50:57;5.40;99.90
935;DHT22;454;53.254;10.400;2022-12-24T06:53:23;5.40;99.90
935;DHT22;454;53.254;10.400;2022-12-24T06:55:50;5.40;99.90
935;DHT22;454;53.254;10.400;2022-12-24T06:58:17;5.40;99.90
935;DHT22;454;53.254;10.400;2022-12-24T07:00:46;5.40;99.90
935;DHT22;454;53.254;10.400;2022-12-24T07:03:13;5.40;99.90
935;DHT22;454;53.254;10.400;2022-12-24T07:05:40;5.40;99.90
935;DHT22;454;53.254;10.400;2022-12-24T07:08:07;5.40;99.90
935;DHT22;454;53.254;10.400;2022-12-24T07:10:34;5.40;99.90
935;DHT22;454;53.254;10.400;2022-12-24T07:13:01;5.40;99.90
935;DHT22;454;53.254;10.400;2022-12-24T07:15:27;5.40;99.90
935;DHT22;454;53.254;10.400;2022-12-24T07:17:55;5.40;99.90
935;DHT22;454;53.254;10.400;2022-12-24T07:20:22;5.40;99.90
935;DHT22;454;53.254;10.400;2022-12-24T07:22:49;5.40;99.90
935;DHT22;454;53.254;10.400;2022-12-24T07:25:16;5.40;99.90
935;DHT22;454;53.254;10.400;2022-12-24T07:27:42;5.40;99.90
935;DHT22;454;53.254;10.400;2022-12-24T07:30:10;5.40;99.90
935;DHT22;454;53.254;10.400;2022-12-24T07:32:37;5.40;99.90
935;DHT22;454;53.254;10.400;2022-12-24T07:35:06;5.40;99.90
935;DHT22;454;53.254;10.400;2022-12-24T07:37:32;5.40;99.90
935;DHT22;454;53.254;10.400;2022-12-24T07:39:59;5.40;99.90
935;DHT22;454;53.254;10.400;2022-12-24T07:42:26;5.40;99.90
935;DHT22;454;53.254;10.400;2022-12-24T07:44:53;5.40;99.90
935;DHT22;454;53.254;10.400;2022-12-24T07:47:19;5.40;99.90
935;DHT22;454;53.254;10.400;2022-12-24T07:49:46;5.40;99.90
935;DHT22;454;53.254;10.400;2022-12-24T07:52:14;5.40;99.90
935;DHT22;454;53.254;10.400;2022-12-24T07:54:41;5.40;99.90
935;DHT22;454;53.254;10.400;2022-12-24T07:57:08;5.40;99.90
935;DHT22;454;53.254;10.400;2022-12-24T07:59:35;5.40;99.90
935;DHT22;454;53.254;10.400;2022-12-24T08:02:03;5.40;99.90
935;DHT22;454;53.254;10.400;2022-12-24T08:04:30;5.40;99.90
935;DHT22;454;53.254;10.400;2022-12-24T08:06:58;5.40;99.90
935;DHT22;454;53.254;10.400;2022-12-24T08:09:25;5.40;99.90
935;DHT22;454;53.254;10.400;2022-12-24T08:11:52;5.40;99.90
935;DHT22;454;53.254;10.400;2022-12-24T08:14:19;5.40;99.90
935;DHT22;454;53.254;10.400;2022-12-24T08:16:45;5.40;99.90
935;DHT22;454;53.254;10.400;2022-12-24T08:19:12;5.50;99.90
935;DHT22;454;53.254;10.400;2022-12-24T08:21:39;5.50;99.90
935;DHT22;454;53.254;10.400;2022-12-24T08:24:06;5.40;99.90
935;DHT22;454;53.254;10.400;2022-12-24T08:26:34;5.50;99.90
935;DHT22;454;53.254;10.400;2022-12-24T08:29:01;5.50;99.90
935;DHT22;454;53.254;10.400;2022-12-24T08:31:28;5.50;99.90
935;DHT22;454;53.254;10.400;2022-12-24T08:33:55;5.50;99.90
935;DHT22;454;53.254;10.400;2022-12-24T08:36:21;5.50;99.90
935;DHT22;454;53.254;10.400;2022-12-24T08:38:48;5.50;99.90
935;DHT22;454;53.254;10.400;2022-12-24T08:41:15;5.50;99.90
935;DHT22;454;53.254;10.400;2022-12-24T08:43:43;5.50;99.90
935;DHT22;454;53.254;10.400;2022-12-24T08:46:09;5.60;99.90
935;DHT22;454;53.254;10.400;2022-12-24T08:48:36;5.60;99.90
935;DHT22;454;53.254;10.400;2022-12-24T08:51:06;5.60;99.90
935;DHT22;454;53.254;10.400;2022-12-24T08:53:33;5.60;99.90
935;DHT22;454;53.254;10.400;2022-12-24T08:56:01;5.70;99.90
935;DHT22;454;53.254;10.400;2022-12-24T08:58:28;5.60;99.90
935;DHT22;454;53.254;10.400;2022-12-24T09:00:56;5.60;99.90
935;DHT22;454;53.254;10.400;2022-12-24T09:03:23;5.60;99.90
935;DHT22;454;53.254;10.400;2022-12-24T09:05:50;5.60;99.90
935;DHT22;454;53.254;10.400;2022-12-24T09:08:17;5.70;99.90
935;DHT22;454;53.254;10.400;2022-12-24T09:10:44;5.60;99.90
935;DHT22;454;53.254;10.400;2022-12-24T09:13:11;5.60;99.90
935;DHT22;454;53.254;10.400;2022-12-24T09:15:38;5.60;99.90
935;DHT22;454;53.254;10.400;2022-12-24T09:18:06;5.60;99.90
935;DHT22;454;53.254;10.400;2022-12-24T09:20:32;5.60;99.90
935;DHT22;454;53.254;10.400;2022-12-24T09:22:59;5.60;99.90
935;DHT22;454;53.254;10.400;2022-12-24T09:25:26;5.60;99.90
935;DHT22;454;53.254;10.400;2022-12-24T09:27:52;5.60;99.90
935;DHT22;454;53.254;10.400;2022-12-24T09:30:19;5.60;99.90
935;DHT22;454;53.254;10.400;2022-12-24T09:32:46;5.60;99.90
935;DHT22;454;53.254;10.400;2022-12-24T09:35:14;5.60;99.90
935;DHT22;454;53.254;10.400;2022-12-24T09:37:40;5.60;99.90
935;DHT22;454;53.254;10.400;2022-12-24T09:40:17;5.60;99.90
935;DHT22;454;53.254;10.400;2022-12-24T09:42:50;5.70;99.90
935;DHT22;454;53.254;10.400;2022-12-24T09:45:23;5.80;99.90
935;DHT22;454;53.254;10.400;2022-12-24T09:47:56;5.80;99.90
935;DHT22;454;53.254;10.400;2022-12-24T09:50:31;5.80;99.90
935;DHT22;454;53.254;10.400;2022-12-24T09:53:02;5.80;99.90
935;DHT22;454;53.254;10.400;2022-12-24T09:55:32;5.80;99.90
935;DHT22;454;53.254;10.400;2022-12-24T09:58:01;5.80;99.90
935;DHT22;454;53.254;10.400;2022-12-24T10:00:32;5.80;99.90
935;DHT22;454;53.254;10.400;2022-12-24T10:03:00;5.80;99.90
935;DHT22;454;53.254;10.400;2022-12-24T10:05:33;5.80;99.90
935;DHT22;454;53.254;10.400;2022-12-24T10:08:10;5.90;99.90
935;DHT22;454;53.254;10.400;2022-12-24T10:10:45;5.90;99.90
935;DHT22;454;53.254;10.400;2022-12-24T10:13:17;5.90;99.90
935;DHT22;454;53.254;10.400;2022-12-24T10:15:49;6.00;99.90
935;DHT22;454;53.254;10.400;2022-12-24T10:18:26;6.00;99.90
935;DHT22;454;53.254;10.400;2022-12-24T10:21:04;6.00;99.90
935;DHT22;454;53.254;10.400;2022-12-24T10:23:36;6.00;99.90
935;DHT22;454;53.254;10.400;2022-12-24T10:26:11;6.00;99.90
935;DHT22;454;53.254;10.400;2022-12-24T10:28:44;6.10;99.90
935;DHT22;454;53.254;10.400;2022-12-24T10:31:13;6.10;99.90
935;DHT22;454;53.254;10.400;2022-12-24T10:33:41;6.10;99.90
935;DHT22;454;53.254;10.400;2022-12-24T10:36:14;6.10;99.90
935;DHT22;454;53.254;10.400;2022-12-24T10:38:42;6.20;99.90
935;DHT22;454;53.254;10.400;2022-12-24T10:41:09;6.30;99.90
935;DHT22;454;53.254;10.400;2022-12-24T10:43:37;6.40;99.90
935;DHT22;454;53.254;10.400;2022-12-24T10:46:15;6.50;99.90
935;DHT22;454;53.254;10.400;2022-12-24T10:48:47;6.60;99.90
935;DHT22;454;53.254;10.400;2022-12-24T10:51:20;6.60;99.90
935;DHT22;454;53.254;10.400;2022-12-24T10:53:50;6.60;99.90
935;DHT22;454;53.254;10.400;2022-12-24T10:56:18;6.70;99.90
935;DHT22;454;53.254;10.400;2022-12-24T10:58:51;6.80;99.90
935;DHT22;454;53.254;10.400;2022-12-24T11:01:18;6.90;99.90
935;DHT22;454;53.254;10.400;2022-12-24T11:03:59;6.90;99.90
935;DHT22;454;53.254;10.400;2022-12-24T11:06:27;6.90;99.90
935;DHT22;454;53.254;10.400;2022-12-24T11:09:12;7.00;99.90
935;DHT22;454;53.254;10.400;2022-12-24T11:11:45;7.10;99.90
935;DHT22;454;53.254;10.400;2022-12-24T11:14:15;7.00;99.90
935;DHT22;454;53.254;10.400;2022-12-24T11:16:49;7.10;99.90
935;DHT22;454;53.254;10.400;2022-12-24T11:19:19;7.20;99.90
935;DHT22;454;53.254;10.400;2022-12-24T11:21:57;7.20;99.90
935;DHT22;454;53.254;10.400;2022-12-24T11:24:26;7.30;99.90
935;DHT22;454;53.254;10.400;2022-12-24T11:26:54;7.40;99.90
935;DHT22;454;53.254;10.400;2022-12-24T11:29:41;7.50;99.90
935;DHT22;454;53.254;10.400;2022-12-24T11:32:16;7.50;99.90
935;DHT22;454;53.254;10.400;2022-12-24T11:34:43;7.50;99.90
935;DHT22;454;53.254;10.400;2022-12-24T11:37:15;7.60;99.90
935;DHT22;454;53.254;10.400;2022-12-24T11:39:45;7.60;99.90
935;DHT22;454;53.254;10.400;2022-12-24T11:42:27;7.60;99.90
935;DHT22;454;53.254;10.400;2022-12-24T11:44:57;7.60;99.90
935;DHT22;454;53.254;10.400;2022-12-24T11:47:32;7.70;99.90
935;DHT22;454;53.254;10.400;2022-12-24T11:50:18;7.70;99.90
935;DHT22;454;53.254;10.400;2022-12-24T11:52:48;7.70;99.90
935;DHT22;454;53.254;10.400;2022-12-24T11:55:23;7.70;99.90
935;DHT22;454;53.254;10.400;2022-12-24T11:57:57;7.80;99.90
935;DHT22;454;53.254;10.400;2022-12-24T12:00:26;7.80;99.90
935;DHT22;454;53.254;10.400;2022-12-24T12:02:55;7.90;99.90
935;DHT22;454;53.254;10.400;2022-12-24T12:05:25;7.90;99.90
935;DHT22;454;53.254;10.400;2022-12-24T12:07:57;8.00;99.90
935;DHT22;454;53.254;10.400;2022-12-24T12:10:30;8.00;99.90
935;DHT22;454;53.254;10.400;2022-12-24T12:13:00;8.00;99.90
935;DHT22;454;53.254;10.400;2022-12-24T12:15:32;8.10;99.90
935;DHT22;454;53.254;10.400;2022-12-24T12:18:04;8.10;99.90
935;DHT22;454;53.254;10.400;2022-12-24T12:20:35;8.20;99.90
935;DHT22;454;53.254;10.400;2022-12-24T12:23:12;8.20;99.90
935;DHT22;454;53.254;10.400;2022-12-24T12:25:44;8.30;99.90
935;DHT22;454;53.254;10.400;2022-12-24T12:28:17;8.40;99.90
935;DHT22;454;53.254;10.400;2022-12-24T12:30:50;8.40;99.90
935;DHT22;454;53.254;10.400;2022-12-24T12:33:25;8.60;99.90
935;DHT22;454;53.254;10.400;2022-12-24T12:35:56;8.60;99.90
935;DHT22;454;53.254;10.400;2022-12-24T12:38:27;8.60;99.90
935;DHT22;454;53.254;10.400;2022-12-24T12:41:03;8.60;99.90
935;DHT22;454;53.254;10.400;2022-12-24T12:43:51;8.60;99.90
935;DHT22;454;53.254;10.400;2022-12-24T12:46:30;8.70;99.90
935;DHT22;454;53.254;10.400;2022-12-24T12:49:11;8.90;99.90
935;DHT22;454;53.254;10.400;2022-12-24T12:51:46;8.90;99.90
935;DHT22;454;53.254;10.400;2022-12-24T12:54:31;9.00;99.90
935;DHT22;454;53.254;10.400;2022-12-24T12:57:05;9.00;99.90
935;DHT22;454;53.254;10.400;2022-12-24T12:59:36;9.10;99.90
935;DHT22;454;53.254;10.400;2022-12-24T13:02:19;9.10;99.90
935;DHT22;454;53.254;10.400;2022-12-24T13:05:17;9.10;99.90
935;DHT22;454;53.254;10.400;2022-12-24T13:08:04;9.10;99.90
935;DHT22;454;53.254;10.400;2022-12-24T13:13:45;9.10;99.90
935;DHT22;454;53.254;10.400;2022-12-24T13:16:49;9.10;99.90
935;DHT22;454;53.254;10.400;2022-12-24T13:19:28;9.10;99.90
935;DHT22;454;53.254;10.400;2022-12-24T13:21:59;9.10;99.90
935;DHT22;454;53.254;10.400;2022-12-24T13:24:27;9.20;99.90
935;DHT22;454;53.254;10.400;2022-12-24T13:27:04;9.20;99.90
935;DHT22;454;53.254;10.400;2022-12-24T13:29:44;9.10;99.90
935;DHT22;454;53.254;10.400;2022-12-24T13:32:39;9.10;99.90
935;DHT22;454;53.254;10.400;2022-12-24T13:35:33;9.00;99.90
935;DHT22;454;53.254;10.400;2022-12-24T13:38:40;9.00;99.90
935;DHT22;454;53.254;10.400;2022-12-24T13:44:25;9.00;99.90
935;DHT22;454;53.254;10.400;2022-12-24T13:47:00;8.90;99.90
935;DHT22;454;53.254;10.400;2022-12-24T13:49:34;8.90;99.90
935;DHT22;454;53.254;10.400;2022-12-24T13:52:14;8.90;99.90
935;DHT22;454;53.254;10.400;2022-12-24T13:54:46;8.90;99.90
935;DHT22;454;53.254;10.400;2022-12-24T13:57:28;8.90;99.90
935;DHT22;454;53.254;10.400;2022-12-24T14:00:00;8.80;99.90
935;DHT22;454;53.254;10.400;2022-12-24T14:02:31;8.80;99.90
935;DHT22;454;53.254;10.400;2022-12-24T14:05:02;8.70;99.90
935;DHT22;454;53.254;10.400;2022-12-24T14:07:29;8.60;99.90
935;DHT22;454;53.254;10.400;2022-12-24T14:09:57;8.60;99.90
935;DHT22;454;53.254;10.400;2022-12-24T14:12:46;8.60;99.90
935;DHT22;454;53.254;10.400;2022-12-24T14:18:31;8.60;99.90
935;DHT22;454;53.254;10.400;2022-12-24T14:21:00;8.60;99.90
935;DHT22;454;53.254;10.400;2022-12-24T14:23:41;8.60;99.90
935;DHT22;454;53.254;10.400;2022-12-24T14:26:13;8.60;99.90
935;DHT22;454;53.254;10.400;2022-12-24T14:28:43;8.50;99.90
935;DHT22;454;53.254;10.400;2022-12-24T14:31:14;8.50;99.90
935;DHT22;454;53.254;10.400;2022-12-24T14:33:43;8.50;99.90
935;DHT22;454;53.254;10.400;2022-12-24T14:36:12;8.40;99.90
935;DHT22;454;53.254;10.400;2022-12-24T14:38:40;8.40;99.90
935;DHT22;454;53.254;10.400;2022-12-24T14:41:15;8.40;99.90
935;DHT22;454;53.254;10.400;2022-12-24T14:43:51;8.40;99.90
935;DHT22;454;53.254;10.400;2022-12-24T14:46:23;8.40;99.90
935;DHT22;454;53.254;10.400;2022-12-24T14:48:56;8.30;99.90
935;DHT22;454;53.254;10.400;2022-12-24T14:51:31;8.30;99.90
935;DHT22;454;53.254;10.400;2022-12-24T14:54:34;8.30;99.90
935;DHT22;454;53.254;10.400;2022-12-24T14:57:13;8.30;99.90
935;DHT22;454;53.254;10.400;2022-12-24T14:59:43;8.20;99.90
935;DHT22;454;53.254;10.400;2022-12-24T15:02:42;8.20;99.90
935;DHT22;454;53.254;10.400;2022-12-24T15:05:14;8.10;99.90
935;DHT22;454;53.254;10.400;2022-12-24T15:07:45;8.10;99.90
935;DHT22;454;53.254;10.400;2022-12-24T15:10:28;8.10;99.90
935;DHT22;454;53.254;10.400;2022-12-24T15:12:57;8.10;99.90
935;DHT22;454;53.254;10.400;2022-12-24T15:15:26;8.10;99.90
935;DHT22;454;53.254;10.400;2022-12-24T15:17:53;8.10;99.90
935;DHT22;454;53.254;10.400;2022-12-24T15:20:24;8.00;99.90
935;DHT22;454;53.254;10.400;2022-12-24T15:22:52;8.00;99.90
935;DHT22;454;53.254;10.400;2022-12-24T15:25:22;8.00;99.90
935;DHT22;454;53.254;10.400;2022-12-24T15:27:48;8.10;99.90
935;DHT22;454;53.254;10.400;2022-12-24T15:30:18;8.10;99.90
935;DHT22;454;53.254;10.400;2022-12-24T15:32:45;8.10;99.90
935;DHT22;454;53.254;10.400;2022-12-24T15:35:42;8.20;99.90
935;DHT22;454;53.254;10.400;2022-12-24T15:38:22;8.20;99.90
935;DHT22;454;53.254;10.400;2022-12-24T15:40:49;8.10;99.90
935;DHT22;454;53.254;10.400;2022-12-24T15:43:17;8.20;99.90
935;DHT22;454;53.254;10.400;2022-12-24T15:45:45;8.20;99.90
935;DHT22;454;53.254;10.400;2022-12-24T15:48:17;8.20;99.90
935;DHT22;454;53.254;10.400;2022-12-24T15:50:51;8.10;99.90
935;DHT22;454;53.254;10.400;2022-12-24T15:53:22;8.10;99.90
935;DHT22;454;53.254;10.400;2022-12-24T15:56:04;8.10;99.90
935;DHT22;454;53.254;10.400;2022-12-24T15:58:33;8.10;99.90
935;DHT22;454;53.254;10.400;2022-12-24T16:01:03;8.10;99.90
935;DHT22;454;53.254;10.400;2022-12-24T16:03:30;8.10;99.90
935;DHT22;454;53.254;10.400;2022-12-24T16:06:03;8.20;99.90
935;DHT22;454;53.254;10.400;2022-12-24T16:08:31;8.10;99.90
935;DHT22;454;53.254;10.400;2022-12-24T16:11:10;8.10;99.90
935;DHT22;454;53.254;10.400;2022-12-24T16:13:42;8.20;99.90
935;DHT22;454;53.254;10.400;2022-12-24T16:16:10;8.20;99.90
935;DHT22;454;53.254;10.400;2022-12-24T16:18:41;8.20;99.90
935;DHT22;454;53.254;10.400;2022-12-24T16:21:18;8.20;99.90
935;DHT22;454;53.254;10.400;2022-12-24T16:23:47;8.30;99.90
935;DHT22;454;53.254;10.400;2022-12-24T16:26:14;8.20;99.90
935;DHT22;454;53.254;10.400;2022-12-24T16:28:40;8.20;99.90
935;DHT22;454;53.254;10.400;2022-12-24T16:31:15;8.20;99.90
935;DHT22;454;53.254;10.400;2022-12-24T16:33:43;8.20;99.90
935;DHT22;454;53.254;10.400;2022-12-24T16:36:11;8.20;99.90
935;DHT22;454;53.254;10.400;2022-12-24T16:38:38;8.20;99.90
935;DHT22;454;53.254;10.400;2022-12-24T16:41:19;8.20;99.90
935;DHT22;454;53.254;10.400;2022-12-24T16:43:45;8.30;99.90
935;DHT22;454;53.254;10.400;2022-12-24T16:46:14;8.30;99.90
935;DHT22;454;53.254;10.400;2022-12-24T16:48:44;8.30;99.90
935;DHT22;454;53.254;10.400;2022-12-24T16:51:13;8.20;99.90
935;DHT22;454;53.254;10.400;2022-12-24T16:53:39;8.30;99.90
935;DHT22;454;53.254;10.400;2022-12-24T16:56:06;8.30;99.90
935;DHT22;454;53.254;10.400;2022-12-24T16:58:33;8.30;99.90
935;DHT22;454;53.254;10.400;2022-12-24T17:01:05;8.30;99.90
935;DHT22;454;53.254;10.400;2022-12-24T17:03:32;8.30;99.90
935;DHT22;454;53.254;10.400;2022-12-24T17:06:03;8.30;99.90
935;DHT22;454;53.254;10.400;2022-12-24T17:08:31;8.40;99.90
935;DHT22;454;53.254;10.400;2022-12-24T17:10:58;8.40;99.90
935;DHT22;454;53.254;10.400;2022-12-24T17:13:25;8.40;99.90
935;DHT22;454;53.254;10.400;2022-12-24T17:15:51;8.40;99.90
935;DHT22;454;53.254;10.400;2022-12-24T17:18:18;8.40;99.90
935;DHT22;454;53.254;10.400;2022-12-24T17:20:57;8.40;99.90
935;DHT22;454;53.254;10.400;2022-12-24T17:23:24;8.50;99.90
935;DHT22;454;53.254;10.400;2022-12-24T17:25:52;8.40;99.90
935;DHT22;454;53.254;10.400;2022-12-24T17:28:19;8.40;99.90
935;DHT22;454;53.254;10.400;2022-12-24T17:30:46;8.50;99.90
935;DHT22;454;53.254;10.400;2022-12-24T17:33:13;8.40;99.90
935;DHT22;454;53.254;10.400;2022-12-24T17:35:40;8.40;99.90
935;DHT22;454;53.254;10.400;2022-12-24T17:38:07;8.40;99.90
935;DHT22;454;53.254;10.400;2022-12-24T17:40:33;8.40;99.90
935;DHT22;454;53.254;10.400;2022-12-24T17:43:02;8.40;99.90
935;DHT22;454;53.254;10.400;2022-12-24T17:45:28;8.40;99.90
935;DHT22;454;53.254;10.400;2022-12-24T17:47:55;8.30;99.90
935;DHT22;454;53.254;10.400;2022-12-24T17:50:22;8.40;99.90
935;DHT22;454;53.254;10.400;2022-12-24T17:52:48;8.30;99.90
935;DHT22;454;53.254;10.400;2022-12-24T17:55:15;8.30;99.90
935;DHT22;454;53.254;10.400;2022-12-24T17:57:42;8.30;99.90
935;DHT22;454;53.254;10.400;2022-12-24T18:00:12;8.30;99.90
935;DHT22;454;53.254;10.400;2022-12-24T18:02:39;8.30;99.90
935;DHT22;454;53.254;10.400;2022-12-24T18:05:06;8.30;99.90
935;DHT22;454;53.254;10.400;2022-12-24T18:07:33;8.30;99.90
935;DHT22;454;53.254;10.400;2022-12-24T18:10:01;8.30;99.90
935;DHT22;454;53.254;10.400;2022-12-24T18:12:29;8.30;99.90
935;DHT22;454;53.254;10.400;2022-12-24T18:14:56;8.30;99.90
935;DHT22;454;53.254;10.400;2022-12-24T18:17:24;8.30;99.90
935;DHT22;454;53.254;10.400;2022-12-24T18:19:50;8.30;99.90
935;DHT22;454;53.254;10.400;2022-12-24T18:22:17;8.20;99.90
935;DHT22;454;53.254;10.400;2022-12-24T18:24:44;8.20;99.90
935;DHT22;454;53.254;10.400;2022-12-24T18:27:10;8.20;99.90
935;DHT22;454;53.254;10.400;2022-12-24T18:29:37;8.20;99.90
935;DHT22;454;53.254;10.400;2022-12-24T18:32:07;8.20;99.90
935;DHT22;454;53.254;10.400;2022-12-24T18:34:35;8.20;99.90
935;DHT22;454;53.254;10.400;2022-12-24T18:37:01;8.10;99.90
935;DHT22;454;53.254;10.400;2022-12-24T18:39:28;8.10;99.90
935;DHT22;454;53.254;10.400;2022-12-24T18:41:55;8.10;99.90
935;DHT22;454;53.254;10.400;2022-12-24T18:44:21;8.10;99.90
935;DHT22;454;53.254;10.400;2022-12-24T18:46:48;8.10;99.90
935;DHT22;454;53.254;10.400;2022-12-24T18:49:15;8.10;99.90
935;DHT22;454;53.254;10.400;2022-12-24T18:51:43;8.10;99.90
935;DHT22;454;53.254;10.400;2022-12-24T18:54:09;8.10;99.90
935;DHT22;454;53.254;10.400;2022-12-24T18:56:36;8.10;99.90
935;DHT22;454;53.254;10.400;2022-12-24T18:59:03;8.10;99.90
935;DHT22;454;53.254;10.400;2022-12-24T19:01:31;8.10;99.90
935;DHT22;454;53.254;10.400;2022-12-24T19:03:58;8.00;99.90
935;DHT22;454;53.254;10.400;2022-12-24T19:06:25;8.00;99.90
935;DHT22;454;53.254;10.400;2022-12-24T19:08:53;7.90;99.90
935;DHT22;454;53.254;10.400;2022-12-24T19:11:20;7.90;99.90
935;DHT22;454;53.254;10.400;2022-12-24T19:13:48;7.90;99.90
935;DHT22;454;53.254;10.400;2022-12-24T19:16:15;7.80;99.90
935;DHT22;454;53.254;10.400;2022-12-24T19:18:42;7.80;99.90
935;DHT22;454;53.254;10.400;2022-12-24T19:21:11;7.70;99.90
935;DHT22;454;53.254;10.400;2022-12-24T19:23:38;7.70;99.90
935;DHT22;454;53.254;10.400;2022-12-24T19:26:06;7.70;99.90
935;DHT22;454;53.254;10.400;2022-12-24T19:28:33;7.60;99.90
935;DHT22;454;53.254;10.400;2022-12-24T19:31:04;7.60;99.90
935;DHT22;454;53.254;10.400;2022-12-24T19:33:35;7.50;99.90
935;DHT22;454;53.254;10.400;2022-12-24T19:36:04;7.40;99.90
935;DHT22;454;53.254;10.400;2022-12-24T19:38:32;7.40;99.90
935;DHT22;454;53.254;10.400;2022-12-24T19:41:05;7.30;99.90
935;DHT22;454;53.254;10.400;2022-12-24T19:43:35;7.20;99.90
935;DHT22;454;53.254;10.400;2022-12-24T19:46:02;7.20;99.90
935;DHT22;454;53.254;10.400;2022-12-24T19:48:29;7.10;99.90
935;DHT22;454;53.254;10.400;2022-12-24T19:50:59;7.10;99.90
935;DHT22;454;53.254;10.400;2022-12-24T19:53:26;7.00;99.90
935;DHT22;454;53.254;10.400;2022-12-24T19:55:52;7.00;99.90
935;DHT22;454;53.254;10.400;2022-12-24T19:58:20;7.00;99.90
935;DHT22;454;53.254;10.400;2022-12-24T20:00:47;6.90;99.90
935;DHT22;454;53.254;10.400;2022-12-24T20:03:14;6.90;99.90
935;DHT22;454;53.254;10.400;2022-12-24T20:05:41;6.80;99.90
935;DHT22;454;53.254;10.400;2022-12-24T20:08:08;6.80;99.90
935;DHT22;454;53.254;10.400;2022-12-24T20:10:37;6.80;99.90
935;DHT22;454;53.254;10.400;2022-12-24T20:13:04;6.70;99.90
935;DHT22;454;53.254;10.400;2022-12-24T20:15:37;6.70;99.90
935;DHT22;454;53.254;10.400;2022-12-24T20:18:04;6.70;99.90
935;DHT22;454;53.254;10.400;2022-12-24T20:20:31;6.60;99.90
935;DHT22;454;53.254;10.400;2022-12-24T20:22:57;6.60;99.90
935;DHT22;454;53.254;10.400;2022-12-24T20:25:24;6.60;99.90
935;DHT22;454;53.254;10.400;2022-12-24T20:27:51;6.60;99.90
935;DHT22;454;53.254;10.400;2022-12-24T20:30:18;6.60;99.90
935;DHT22;454;53.254;10.400;2022-12-24T20:32:46;6.60;99.90
935;DHT22;454;53.254;10.400;2022-12-24T20:35:13;6.60;99.90
935;DHT22;454;53.254;10.400;2022-12-24T20:37:39;6.60;99.90
935;DHT22;454;53.254;10.400;2022-12-24T20:40:08;6.60;99.90
935;DHT22;454;53.254;10.400;2022-12-24T20:42:35;6.50;99.90
935;DHT22;454;53.254;10.400;2022-12-24T20:45:02;6.60;99.90
935;DHT22;454;53.254;10.400;2022-12-24T20:47:29;6.60;99.90
935;DHT22;454;53.254;10.400;2022-12-24T20:49:58;6.60;99.90
935;DHT22;454;53.254;10.400;2022-12-24T20:52:24;6.60;99.90
935;DHT22;454;53.254;10.400;2022-12-24T20:54:51;6.70;99.90
935;DHT22;454;53.254;10.400;2022-12-24T20:57:18;6.70;99.90
935;DHT22;454;53.254;10.400;2022-12-24T20:59:44;6.70;99.90
935;DHT22;454;53.254;10.400;2022-12-24T21:02:11;6.80;99.90
935;DHT22;454;53.254;10.400;2022-12-24T21:04:38;6.80;99.90
935;DHT22;454;53.254;10.400;2022-12-24T21:07:06;6.80;99.90
935;DHT22;454;53.254;10.400;2022-12-24T21:09:33;6.90;99.90
935;DHT22;454;53.254;10.400;2022-12-24T21:12:00;6.90;99.90
935;DHT22;454;53.254;10.400;2022-12-24T21:14:44;6.90;99.90
935;DHT22;454;53.254;10.400;2022-12-24T21:17:10;6.90;99.90
935;DHT22;454;53.254;10.400;2022-12-24T21:19:37;6.80;99.90
935;DHT22;454;53.254;10.400;2022-12-24T21:22:04;6.80;99.90
935;DHT22;454;53.254;10.400;2022-12-24T21:24:32;6.70;99.90
935;DHT22;454;53.254;10.400;2022-12-24T21:26:58;6.60;99.90
935;DHT22;454;53.254;10.400;2022-12-24T21:29:26;6.60;99.90
935;DHT22;454;53.254;10.400;2022-12-24T21:31:52;6.50;99.90
935;DHT22;454;53.254;10.400;2022-12-24T21:34:19;6.40;99.90
935;DHT22;454;53.254;10.400;2022-12-24T21:36:46;6.40;99.90
935;DHT22;454;53.254;10.400;2022-12-24T21:39:12;6.30;99.90
935;DHT22;454;53.254;10.400;2022-12-24T21:41:40;6.30;99.90
935;DHT22;454;53.254;10.400;2022-12-24T21:44:07;6.20;99.90
935;DHT22;454;53.254;10.400;2022-12-24T21:46:34;6.20;99.90
935;DHT22;454;53.254;10.400;2022-12-24T21:49:01;6.20;99.90
935;DHT22;454;53.254;10.400;2022-12-24T21:51:45;6.10;99.90
935;DHT22;454;53.254;10.400;2022-12-24T21:54:13;6.10;99.90
935;DHT22;454;53.254;10.400;2022-12-24T21:56:52;6.10;99.90
935;DHT22;454;53.254;10.400;2022-12-24T21:59:37;6.10;99.90
